Anta, Peru
Current Conditions -  °F | °C
As of 3:00 PM on Friday 24 Oct 2014 (Local Time) from SPRU Reporting Station
Overcast Overcast  
Wind Chill: 68°   Ceiling: 2000
Heat Index: 68°   Visibility: 6mi
Dew Point: 59°   Wind: 10mph
Humidity: 73%   Direction: 180°S
Pressure: 29.88"   Gusts: NA
Location:  9.35°S, 77.6°W
Report Text: SPRU 242000Z 18009KT 9999 OVC020 20/15 Q1012 RMK PP000
Loading
Personal Weather Stations






























Interactive Weather Map New forecast layout! Learn more

10-Day Weather Forecast

Advertisements
Track Severe Weather on mobile